Time,TemperatureF,DewpointF,PressureIn,WindDirection,WindDirectionDegrees,WindSpeedMPH,WindSpeedGustMPH,Humidity,HourlyPrecipIn,Conditions,Clouds,dailyrainin,SoftwareType,DateUTC
2013-09-04 00:00:00,64.9,64.3,29.75,SSE,157,0.0,-999.0,98,-99.99,,,0.00,Acu-Link.com,2013-09-04 04:00:00,
2013-09-04 00:15:00,64.8,64.2,29.77,WSW,247,0.0,-999.0,98,-99.99,,,0.00,Acu-Link.com,2013-09-04 04:15:00,
2013-09-04 00:30:00,64.6,64.0,29.75,SSE,157,0.0,-999.0,98,-99.99,,,0.00,Acu-Link.com,2013-09-04 04:30:00,
2013-09-04 00:46:00,64.4,63.8,29.76,WSW,247,0.0,-999.0,98,-99.99,,,0.00,Acu-Link.com,2013-09-04 04:46:00,
2013-09-04 01:01:00,64.0,63.4,29.75,West,270,0.0,-999.0,98,-99.99,,,0.00,Acu-Link.com,2013-09-04 05:01:00,
2013-09-04 01:16:00,64.0,63.4,29.75,SSW,202,0.0,-999.0,98,-99.99,,,0.00,Acu-Link.com,2013-09-04 05:16:00,
2013-09-04 01:31:00,63.9,63.3,29.76,SSW,202,0.0,-999.0,98,-99.99,,,0.00,Acu-Link.com,2013-09-04 05:31:00,
2013-09-04 01:47:00,63.5,62.9,29.75,ESE,112,0.0,-999.0,98,-99.99,,,0.00,Acu-Link.com,2013-09-04 05:47:00,
2013-09-04 02:02:00,63.3,62.7,29.75,NE,45,0.0,-999.0,98,-99.99,,,0.00,Acu-Link.com,2013-09-04 06:02:00,
2013-09-04 02:17:00,63.1,62.5,29.75,SSE,157,0.0,-999.0,98,-99.99,,,0.00,Acu-Link.com,2013-09-04 06:17:00,
2013-09-04 02:33:00,63.3,62.7,29.76,SSW,202,0.0,-999.0,98,-99.99,,,0.00,Acu-Link.com,2013-09-04 06:33:00,
2013-09-04 02:48:00,62.6,62.0,29.75,NNE,22,0.0,-999.0,98,-99.99,,,0.00,Acu-Link.com,2013-09-04 06:48:00,
2013-09-04 03:04:00,62.4,61.8,29.75,South,180,0.0,-999.0,98,-99.99,,,0.00,Acu-Link.com,2013-09-04 07:04:00,
2013-09-04 03:19:00,62.1,61.5,29.75,West,270,0.0,-999.0,98,-99.99,,,0.00,Acu-Link.com,2013-09-04 07:19:00,
2013-09-04 03:34:00,61.7,61.1,29.75,SSW,202,0.0,-999.0,98,-99.99,,,0.00,Acu-Link.com,2013-09-04 07:34:00,
2013-09-04 03:49:00,61.3,60.7,29.75,SW,225,0.0,-999.0,98,-99.99,,,0.00,Acu-Link.com,2013-09-04 07:49:00,
2013-09-04 04:05:00,61.3,60.7,29.76,SSW,202,0.0,-999.0,98,-99.99,,,0.00,Acu-Link.com,2013-09-04 08:05:00,
2013-09-04 04:20:00,61.3,60.7,29.76,SW,225,0.0,-999.0,98,-99.99,,,0.00,Acu-Link.com,2013-09-04 08:20:00,
2013-09-04 04:35:00,61.0,60.4,29.76,ESE,112,0.0,-999.0,98,-99.99,,,0.00,Acu-Link.com,2013-09-04 08:35:00,
2013-09-04 04:50:00,61.2,60.6,29.76,South,180,0.0,-999.0,98,-99.99,,,0.00,Acu-Link.com,2013-09-04 08:50:00,
2013-09-04 05:05:00,60.8,60.2,29.76,SSW,202,0.0,-999.0,98,-99.99,,,0.00,Acu-Link.com,2013-09-04 09:05:00,
2013-09-04 05:20:00,60.4,59.8,29.77,SSW,202,0.0,-999.0,98,-99.99,,,0.00,Acu-Link.com,2013-09-04 09:20:00,
2013-09-04 05:36:00,60.3,59.7,29.77,SW,225,0.0,-999.0,98,-99.99,,,0.00,Acu-Link.com,2013-09-04 09:36:00,
2013-09-04 05:51:00,60.1,59.5,29.79,NE,45,0.0,-999.0,98,-99.99,,,0.00,Acu-Link.com,2013-09-04 09:51:00,
2013-09-04 06:06:00,60.1,59.5,29.79,SSE,157,0.0,-999.0,98,-99.99,,,0.00,Acu-Link.com,2013-09-04 10:06:00,
2013-09-04 06:21:00,59.9,59.3,29.79,SW,225,0.0,-999.0,98,-99.99,,,0.00,Acu-Link.com,2013-09-04 10:21:00,
2013-09-04 06:37:00,59.7,59.1,29.81,SSW,202,0.0,-999.0,98,-99.99,,,0.00,Acu-Link.com,2013-09-04 10:37:00,
2013-09-04 06:52:00,59.7,59.1,29.81,SSW,202,0.0,-999.0,98,-99.99,,,0.00,Acu-Link.com,2013-09-04 10:52:00,
2013-09-04 07:07:00,59.7,59.1,29.82,SSE,157,0.0,-999.0,98,-99.99,,,0.00,Acu-Link.com,2013-09-04 11:07:00,
2013-09-04 07:22:00,59.7,59.1,29.83,SSE,157,0.0,-999.0,98,-99.99,,,0.00,Acu-Link.com,2013-09-04 11:22:00,
2013-09-04 07:37:00,59.9,59.3,29.83,SSE,157,0.0,-999.0,98,-99.99,,,0.00,Acu-Link.com,2013-09-04 11:37:00,
2013-09-04 07:53:00,60.1,59.5,29.84,SSW,202,0.0,-999.0,98,-99.99,,,0.00,Acu-Link.com,2013-09-04 11:53:00,
2013-09-04 08:08:00,60.4,59.8,29.84,South,180,0.0,-999.0,98,-99.99,,,0.00,Acu-Link.com,2013-09-04 12:08:00,
2013-09-04 08:23:00,60.8,60.2,29.84,SW,225,0.0,-999.0,98,-99.99,,,0.00,Acu-Link.com,2013-09-04 12:23:00,
2013-09-04 08:38:00,61.9,61.3,29.85,WNW,292,0.0,-999.0,98,-99.99,,,0.00,Acu-Link.com,2013-09-04 12:38:00,
2013-09-04 08:54:00,62.6,62.0,29.85,WNW,292,0.0,-999.0,98,-99.99,,,0.00,Acu-Link.com,2013-09-04 12:54:00,
2013-09-04 09:09:00,63.7,63.1,29.86,East,90,0.0,-999.0,98,-99.99,,,0.00,Acu-Link.com,2013-09-04 13:09:00,
2013-09-04 09:24:00,64.8,64.2,29.85,NW,315,1.7,-999.0,98,-99.99,,,0.00,Acu-Link.com,2013-09-04 13:24:00,
2013-09-04 09:40:00,67.5,66.9,29.86,ESE,112,0.0,-999.0,98,-99.99,,,0.00,Acu-Link.com,2013-09-04 13:40:00,
2013-09-04 09:55:00,68.4,67.8,29.87,West,270,0.0,-999.0,98,-99.99,,,0.00,Acu-Link.com,2013-09-04 13:55:00,
2013-09-04 10:10:00,69.8,69.2,29.88,WSW,247,0.0,-999.0,98,-99.99,,,0.00,Acu-Link.com,2013-09-04 14:10:00,
2013-09-04 10:25:00,71.4,70.8,29.87,SSW,202,1.7,-999.0,98,-99.99,,,0.00,Acu-Link.com,2013-09-04 14:25:00,
2013-09-04 10:40:00,73.6,73.0,29.88,West,270,1.1,-999.0,98,-99.99,,,0.00,Acu-Link.com,2013-09-04 14:40:00,
2013-09-04 10:56:00,77.7,77.1,29.88,ESE,112,2.7,-999.0,98,-99.99,,,0.00,Acu-Link.com,2013-09-04 14:56:00,
2013-09-04 11:11:00,79.2,78.6,29.88,NE,45,1.7,-999.0,98,-99.99,,,0.00,Acu-Link.com,2013-09-04 15:11:00,
2013-09-04 11:26:00,81.1,80.5,29.87,NW,315,2.7,-999.0,98,-99.99,,,0.00,Acu-Link.com,2013-09-04 15:26:00,
2013-09-04 11:42:00,84.4,83.8,29.87,NNE,22,2.2,-999.0,98,-99.99,,,0.00,Acu-Link.com,2013-09-04 15:42:00,
2013-09-04 11:57:00,88.2,87.6,29.87,ESE,112,4.2,-999.0,98,-99.99,,,0.00,Acu-Link.com,2013-09-04 15:57:00,
2013-09-04 12:12:00,83.8,83.2,29.87,North,0,0.0,-999.0,98,-99.99,,,0.00,Acu-Link.com,2013-09-04 16:12:00,
2013-09-04 12:27:00,80.6,80.0,29.86,NW,315,2.7,-999.0,98,-99.99,,,0.00,Acu-Link.com,2013-09-04 16:27:00,
2013-09-04 12:42:00,81.3,80.7,29.86,ESE,112,2.7,-999.0,98,-99.99,,,0.00,Acu-Link.com,2013-09-04 16:42:00,
2013-09-04 12:58:00,80.1,79.5,29.86,WNW,292,0.0,-999.0,98,-99.99,,,0.00,Acu-Link.com,2013-09-04 16:58:00,
2013-09-04 13:13:00,83.1,82.5,29.86,ESE,112,3.2,-999.0,98,-99.99,,,0.00,Acu-Link.com,2013-09-04 17:13:00,
2013-09-04 13:28:00,83.5,82.9,29.86,ESE,112,1.1,-999.0,98,-99.99,,,0.00,Acu-Link.com,2013-09-04 17:28:00,
2013-09-04 13:43:00,83.1,82.5,29.85,ESE,112,4.2,-999.0,98,-99.99,,,0.00,Acu-Link.com,2013-09-04 17:43:00,
2013-09-04 13:58:00,84.0,83.4,29.85,NNE,22,2.2,-999.0,98,-99.99,,,0.00,Acu-Link.com,2013-09-04 17:58:00,
2013-09-04 14:14:00,83.1,82.5,29.84,ESE,112,4.2,-999.0,98,-99.99,,,0.00,Acu-Link.com,2013-09-04 18:14:00,
2013-09-04 14:29:00,83.3,82.7,29.82,SE,135,1.7,-999.0,98,-99.99,,,0.00,Acu-Link.com,2013-09-04 18:29:00,
2013-09-04 14:44:00,82.2,81.6,29.84,SSW,202,0.0,-999.0,98,-99.99,,,0.00,Acu-Link.com,2013-09-04 18:44:00,
2013-09-04 14:59:00,82.6,82.0,29.85,ESE,112,3.2,-999.0,98,-99.99,,,0.00,Acu-Link.com,2013-09-04 18:59:00,
2013-09-04 15:15:00,84.4,83.8,29.84,East,90,2.2,-999.0,98,-99.99,,,0.00,Acu-Link.com,2013-09-04 19:15:00,
2013-09-04 15:30:00,83.8,83.2,29.82,West,270,2.2,-999.0,98,-99.99,,,0.00,Acu-Link.com,2013-09-04 19:30:00,
2013-09-04 15:45:00,83.7,83.1,29.83,NE,45,2.7,-999.0,98,-99.99,,,0.00,Acu-Link.com,2013-09-04 19:45:00,
2013-09-04 16:01:00,85.3,84.7,29.82,WNW,292,2.2,-999.0,98,-99.99,,,0.00,Acu-Link.com,2013-09-04 20:01:00,
2013-09-04 16:16:00,84.7,84.1,29.81,NNE,22,1.7,-999.0,98,-99.99,,,0.00,Acu-Link.com,2013-09-04 20:16:00,
2013-09-04 16:31:00,84.4,83.8,29.81,NNW,337,2.2,-999.0,98,-99.99,,,0.00,Acu-Link.com,2013-09-04 20:31:00,
2013-09-04 16:46:00,84.2,83.6,29.81,SSW,202,1.1,-999.0,98,-99.99,,,0.00,Acu-Link.com,2013-09-04 20:46:00,
2013-09-04 17:01:00,83.5,82.9,29.81,NNE,22,1.7,-999.0,98,-99.99,,,0.00,Acu-Link.com,2013-09-04 21:01:00,
2013-09-04 17:17:00,83.3,82.7,29.81,NNE,22,1.1,-999.0,98,-99.99,,,0.00,Acu-Link.com,2013-09-04 21:17:00,
2013-09-04 17:32:00,82.9,82.3,29.80,SW,225,0.0,-999.0,98,-99.99,,,0.00,Acu-Link.com,2013-09-04 21:32:00,
2013-09-04 17:47:00,82.6,82.0,29.80,NE,45,0.0,-999.0,98,-99.99,,,0.00,Acu-Link.com,2013-09-04 21:47:00,
2013-09-04 18:02:00,81.9,81.3,29.79,NNE,22,0.0,-999.0,98,-99.99,,,0.00,Acu-Link.com,2013-09-04 22:02:00,
2013-09-04 18:18:00,81.1,80.5,29.80,SSE,157,0.0,-999.0,98,-99.99,,,0.00,Acu-Link.com,2013-09-04 22:18:00,
2013-09-04 18:33:00,80.4,79.8,29.79,South,180,0.0,-999.0,98,-99.99,,,0.00,Acu-Link.com,2013-09-04 22:33:00,
2013-09-04 18:48:00,79.3,78.7,29.80,NNE,22,0.0,-999.0,98,-99.99,,,0.00,Acu-Link.com,2013-09-04 22:48:00,
2013-09-04 19:04:00,78.1,77.5,29.79,NW,315,0.0,-999.0,98,-99.99,,,0.00,Acu-Link.com,2013-09-04 23:04:00,
2013-09-04 19:19:00,77.0,76.4,29.81,NNE,22,0.0,-999.0,98,-99.99,,,0.00,Acu-Link.com,2013-09-04 23:19:00,
2013-09-04 19:34:00,75.0,74.4,29.80,SE,135,0.0,-999.0,98,-99.99,,,0.00,Acu-Link.com,2013-09-04 23:34:00,
2013-09-04 19:49:00,74.1,73.5,29.80,SE,135,0.0,-999.0,98,-99.99,,,0.00,Acu-Link.com,2013-09-04 23:49:00,
2013-09-04 20:04:00,72.7,72.1,29.81,South,180,0.0,-999.0,98,-99.99,,,0.00,Acu-Link.com,2013-09-05 00:04:00,
2013-09-04 20:20:00,72.0,71.4,29.79,WSW,247,0.0,-999.0,98,-99.99,,,0.00,Acu-Link.com,2013-09-05 00:20:00,
2013-09-04 20:35:00,70.7,70.1,29.81,South,180,0.0,-999.0,98,-99.99,,,0.00,Acu-Link.com,2013-09-05 00:35:00,
2013-09-04 20:50:00,70.2,69.6,29.83,SE,135,0.0,-999.0,98,-99.99,,,0.00,Acu-Link.com,2013-09-05 00:50:00,
2013-09-04 21:05:00,69.6,69.0,29.82,SW,225,0.0,-999.0,98,-99.99,,,0.00,Acu-Link.com,2013-09-05 01:05:00,
2013-09-04 21:20:00,69.1,68.5,29.84,ESE,112,0.0,-999.0,98,-99.99,,,0.00,Acu-Link.com,2013-09-05 01:20:00,
2013-09-04 21:36:00,68.7,68.1,29.84,SSW,202,0.0,-999.0,98,-99.99,,,0.00,Acu-Link.com,2013-09-05 01:36:00,
2013-09-04 21:51:00,68.2,67.6,29.85,SSW,202,0.0,-999.0,98,-99.99,,,0.00,Acu-Link.com,2013-09-05 01:51:00,
2013-09-04 22:06:00,67.8,67.2,29.86,SSW,202,0.0,-999.0,98,-99.99,,,0.00,Acu-Link.com,2013-09-05 02:06:00,
2013-09-04 22:22:00,67.5,66.9,29.86,SSW,202,0.0,-999.0,98,-99.99,,,0.00,Acu-Link.com,2013-09-05 02:22:00,
2013-09-04 22:37:00,66.9,66.3,29.86,SW,225,0.0,-999.0,98,-99.99,,,0.00,Acu-Link.com,2013-09-05 02:37:00,
2013-09-04 22:52:00,66.6,66.0,29.86,West,270,0.0,-999.0,98,-99.99,,,0.00,Acu-Link.com,2013-09-05 02:52:00,
2013-09-04 23:07:00,66.4,65.8,29.87,South,180,0.0,-999.0,98,-99.99,,,0.00,Acu-Link.com,2013-09-05 03:07:00,
2013-09-04 23:23:00,66.4,65.8,29.86,SSW,202,0.0,-999.0,98,-99.99,,,0.00,Acu-Link.com,2013-09-05 03:23:00,
2013-09-04 23:38:00,65.8,65.2,29.86,ESE,112,0.0,-999.0,98,-99.99,,,0.00,Acu-Link.com,2013-09-05 03:38:00,
2013-09-04 23:53:00,65.7,65.1,29.87,South,180,0.0,-999.0,98,-99.99,,,0.00,Acu-Link.com,2013-09-05 03:53:00,